Time;durP1;ratioP1;P1;durP2;ratioP2;P2;SDS_P1;SDS_P2;PMS_P1;PMS_P2;Temp;Humidity;BMP_temperature;BMP_pressure;BME280_temperature;BME280_humidity;BME280_pressure;Samples;Min_cycle;Max_cycle;Signal;HPM_P1;HPM_P2
2022/10/31 00:02:16;;;;;;;;;;;10.30;99.90;;;;;;5042712;28;19982;-73
2022/10/31 00:04:48;;;;;;;;;;;10.30;99.90;;;;;;5064326;28;19931;-73
2022/10/31 00:07:19;;;;;;;;;;;10.30;99.90;;;;;;5068216;28;20026;-75
2022/10/31 00:09:51;;;;;;;;;;;10.20;99.90;;;;;;5047350;28;19928;-74
2022/10/31 00:12:23;;;;;;;;;;;10.20;99.90;;;;;;5059841;28;20399;-74
2022/10/31 00:14:54;;;;;;;;;;;10.20;99.90;;;;;;5063766;28;19928;-74
2022/10/31 00:17:26;;;;;;;;;;;10.10;99.90;;;;;;5054465;28;19955;-74
2022/10/31 00:19:52;;;;;;;;;;;10.10;99.90;;;;;;5061437;28;19925;-74
2022/10/31 00:22:24;;;;;;;;;;;10.10;99.90;;;;;;5062281;28;19925;-74
2022/10/31 00:24:56;;;;;;;;;;;10.00;99.90;;;;;;5061185;28;19928;-76
2022/10/31 00:27:27;;;;;;;;;;;9.90;99.90;;;;;;5062099;28;19925;-74
2022/10/31 00:29:59;;;;;;;;;;;9.90;99.90;;;;;;5059709;28;19925;-76
2022/10/31 00:32:31;;;;;;;;;;;9.90;99.90;;;;;;5049639;28;19924;-75
2022/10/31 00:35:02;;;;;;;;;;;9.80;99.90;;;;;;5061776;28;19982;-75
2022/10/31 00:37:29;;;;;;;;;;;9.80;99.90;;;;;;5062623;28;19924;-74
2022/10/31 00:40:01;;;;;;;;;;;9.70;99.90;;;;;;5060350;28;19932;-74
2022/10/31 00:42:27;;;;;;;;;;;9.70;99.90;;;;;;5080970;28;19974;-74
2022/10/31 00:44:59;;;;;;;;;;;9.70;99.90;;;;;;5041319;28;19929;-75
2022/10/31 00:47:31;;;;;;;;;;;9.70;99.90;;;;;;5063266;28;19955;-75
2022/10/31 00:50:06;;;;;;;;;;;9.70;99.90;;;;;;5058822;28;19948;-74
2022/10/31 00:52:37;;;;;;;;;;;9.70;99.90;;;;;;5064218;28;19932;-75
2022/10/31 00:55:05;;;;;;;;;;;9.70;99.90;;;;;;5062434;28;19932;-76
2022/10/31 00:57:36;;;;;;;;;;;9.60;99.90;;;;;;5046233;28;20143;-75
2022/10/31 01:00:08;;;;;;;;;;;9.70;99.90;;;;;;5062164;28;19924;-75
2022/10/31 01:02:40;;;;;;;;;;;9.70;99.90;;;;;;5049978;28;19971;-75
2022/10/31 01:05:12;;;;;;;;;;;9.70;99.90;;;;;;5059462;28;19974;-74
2022/10/31 01:07:45;;;;;;;;;;;9.70;99.90;;;;;;5064859;28;19933;-75
2022/10/31 01:10:17;;;;;;;;;;;9.70;99.90;;;;;;5059349;28;19971;-75
2022/10/31 01:12:45;;;;;;;;;;;9.70;99.90;;;;;;5059300;28;19925;-75
2022/10/31 01:15:18;;;;;;;;;;;9.80;99.90;;;;;;5048624;28;20361;-75
2022/10/31 01:17:50;;;;;;;;;;;9.80;99.90;;;;;;5072097;28;19928;-76
2022/10/31 01:20:22;;;;;;;;;;;9.80;99.90;;;;;;5055268;28;19924;-75
2022/10/31 01:22:48;;;;;;;;;;;9.80;99.90;;;;;;5059488;28;20342;-75
2022/10/31 01:25:15;;;;;;;;;;;9.70;99.90;;;;;;5041319;28;19924;-76
2022/10/31 01:27:48;;;;;;;;;;;9.60;99.90;;;;;;5037256;28;19936;-76
2022/10/31 01:30:19;;;;;;;;;;;9.60;99.90;;;;;;5049670;28;19954;-75
2022/10/31 01:32:51;;;;;;;;;;;9.60;99.90;;;;;;5057890;28;20275;-74
2022/10/31 01:35:22;;;;;;;;;;;9.60;99.90;;;;;;5057219;28;19933;-76
2022/10/31 01:37:54;;;;;;;;;;;9.50;99.90;;;;;;5058236;28;19932;-76
2022/10/31 01:40:28;;;;;;;;;;;9.50;99.90;;;;;;5077342;28;20450;-76
2022/10/31 01:42:55;;;;;;;;;;;9.50;99.90;;;;;;5067472;28;19925;-76
2022/10/31 01:45:26;;;;;;;;;;;9.50;99.90;;;;;;5063625;28;19943;-76
2022/10/31 01:47:58;;;;;;;;;;;9.40;99.90;;;;;;5063252;28;19936;-75
2022/10/31 01:50:33;;;;;;;;;;;9.40;99.90;;;;;;5059670;28;19925;-74
2022/10/31 01:53:06;;;;;;;;;;;9.40;99.90;;;;;;5048415;28;19932;-73
2022/10/31 01:55:34;;;;;;;;;;;9.40;99.90;;;;;;5044979;28;19929;-74
2022/10/31 01:58:18;;;;;;;;;;;9.30;99.90;;;;;;5040353;28;19979;-76
2022/10/31 02:00:51;;;;;;;;;;;9.30;99.90;;;;;;5064512;28;19951;-75
2022/10/31 02:03:23;;;;;;;;;;;9.30;99.90;;;;;;5058778;28;19936;-73
2022/10/31 02:05:56;;;;;;;;;;;9.30;99.90;;;;;;5063663;28;19935;-73
2022/10/31 02:08:29;;;;;;;;;;;9.20;99.90;;;;;;5063774;28;20653;-75
2022/10/31 02:10:56;;;;;;;;;;;9.20;99.90;;;;;;5054685;28;20396;-75
2022/10/31 02:13:29;;;;;;;;;;;9.20;99.90;;;;;;5043123;28;19971;-76
2022/10/31 02:16:00;;;;;;;;;;;9.20;99.90;;;;;;5055285;28;20356;-77
2022/10/31 02:18:33;;;;;;;;;;;9.20;99.90;;;;;;5062059;28;20544;-74
2022/10/31 02:21:06;;;;;;;;;;;9.20;99.90;;;;;;5047145;28;19960;-76
2022/10/31 02:23:56;;;;;;;;;;;9.20;99.90;;;;;;5057815;28;19928;-75
2022/10/31 02:26:49;;;;;;;;;;;9.20;99.90;;;;;;5061182;28;19924;-75
2022/10/31 02:29:35;;;;;;;;;;;9.20;99.90;;;;;;5044436;28;20015;-73
2022/10/31 02:32:07;;;;;;;;;;;9.10;99.90;;;;;;5057743;28;19929;-73
2022/10/31 02:34:38;;;;;;;;;;;9.10;99.90;;;;;;5060882;28;19929;-74
2022/10/31 02:37:13;;;;;;;;;;;9.10;99.90;;;;;;5046672;28;19929;-73
2022/10/31 02:40:08;;;;;;;;;;;9.10;99.90;;;;;;5056529;28;19924;-75
2022/10/31 02:43:01;;;;;;;;;;;9.10;99.90;;;;;;5077530;28;19932;-74
2022/10/31 02:45:45;;;;;;;;;;;9.00;99.90;;;;;;5062146;28;19932;-75
2022/10/31 02:48:14;;;;;;;;;;;9.10;99.90;;;;;;5061070;28;19929;-75
2022/10/31 02:50:43;;;;;;;;;;;9.10;99.90;;;;;;5061272;28;19983;-75
2022/10/31 02:53:15;;;;;;;;;;;9.10;99.90;;;;;;5065002;28;19982;-74
2022/10/31 02:55:50;;;;;;;;;;;9.10;99.90;;;;;;5064194;28;19925;-76
2022/10/31 02:58:24;;;;;;;;;;;9.10;99.90;;;;;;5040968;28;20395;-77
2022/10/31 03:01:06;;;;;;;;;;;9.00;99.90;;;;;;5050301;28;19931;-77
2022/10/31 03:03:41;;;;;;;;;;;9.00;99.90;;;;;;5063275;28;19924;-74
2022/10/31 03:06:26;;;;;;;;;;;9.00;99.90;;;;;;5060529;28;20007;-74
2022/10/31 03:08:58;;;;;;;;;;;9.00;99.90;;;;;;5065247;28;20464;-74
2022/10/31 03:11:36;;;;;;;;;;;9.00;99.90;;;;;;5046729;28;19978;-75
2022/10/31 03:14:11;;;;;;;;;;;9.00;99.90;;;;;;5063475;28;19940;-75
2022/10/31 03:16:48;;;;;;;;;;;9.00;99.90;;;;;;5065379;28;19928;-74
2022/10/31 03:19:25;;;;;;;;;;;9.00;99.90;;;;;;5064183;28;19925;-74
2022/10/31 03:21:51;;;;;;;;;;;8.90;99.90;;;;;;5046461;28;19925;-74
2022/10/31 03:24:22;;;;;;;;;;;8.90;99.90;;;;;;5059606;28;19935;-73
2022/10/31 03:26:56;;;;;;;;;;;8.90;99.90;;;;;;5065945;28;20011;-75
2022/10/31 03:29:32;;;;;;;;;;;8.80;99.90;;;;;;5061135;28;20357;-75
2022/10/31 03:32:09;;;;;;;;;;;8.90;99.90;;;;;;5059403;28;19928;-75
2022/10/31 03:34:44;;;;;;;;;;;8.80;99.90;;;;;;5059807;28;19939;-75
2022/10/31 03:37:17;;;;;;;;;;;8.90;99.90;;;;;;5061689;28;19924;-74
2022/10/31 03:39:49;;;;;;;;;;;8.80;99.90;;;;;;5061855;28;19924;-75
2022/10/31 03:42:28;;;;;;;;;;;8.80;99.90;;;;;;5062183;28;19924;-75
2022/10/31 03:45:03;;;;;;;;;;;8.80;99.90;;;;;;5044631;28;19928;-76
2022/10/31 03:47:37;;;;;;;;;;;8.80;99.90;;;;;;5063205;28;19925;-76
2022/10/31 03:50:04;;;;;;;;;;;8.90;99.90;;;;;;5050658;28;19929;-73
2022/10/31 03:52:47;;;;;;;;;;;8.80;99.90;;;;;;5066641;28;20020;-75
2022/10/31 03:55:28;;;;;;;;;;;8.80;99.90;;;;;;5068323;28;20325;-75
2022/10/31 03:58:00;;;;;;;;;;;8.80;99.90;;;;;;5046623;28;20409;-75
2022/10/31 04:00:28;;;;;;;;;;;8.80;99.90;;;;;;5048147;28;19983;-76
2022/10/31 04:03:05;;;;;;;;;;;8.70;99.90;;;;;;5057874;28;20016;-75
2022/10/31 04:05:38;;;;;;;;;;;8.60;99.90;;;;;;5046944;28;19924;-76
2022/10/31 04:08:11;;;;;;;;;;;8.60;99.90;;;;;;5047184;28;20291;-76
2022/10/31 04:10:46;;;;;;;;;;;8.60;99.90;;;;;;5065284;28;19939;-76
2022/10/31 04:13:15;;;;;;;;;;;8.60;99.90;;;;;;5060164;28;19956;-74
2022/10/31 04:15:45;;;;;;;;;;;8.50;99.90;;;;;;5058574;28;19925;-76
2022/10/31 04:18:17;;;;;;;;;;;8.50;99.90;;;;;;5043466;28;19925;-77
2022/10/31 04:20:49;;;;;;;;;;;8.50;99.90;;;;;;5060251;28;20368;-76
2022/10/31 04:23:25;;;;;;;;;;;8.50;99.90;;;;;;5065657;28;20341;-76
2022/10/31 04:25:58;;;;;;;;;;;8.50;99.90;;;;;;5063711;28;19928;-73
2022/10/31 04:28:24;;;;;;;;;;;8.40;99.90;;;;;;5044071;28;19928;-75
2022/10/31 04:30:56;;;;;;;;;;;8.40;99.90;;;;;;5066978;28;19979;-75
2022/10/31 04:33:23;;;;;;;;;;;8.40;99.90;;;;;;5062937;28;19929;-76
2022/10/31 04:35:54;;;;;;;;;;;8.40;99.90;;;;;;5059452;28;19932;-75
2022/10/31 04:38:21;;;;;;;;;;;8.40;99.90;;;;;;5045619;28;19932;-75
2022/10/31 04:40:48;;;;;;;;;;;8.40;99.90;;;;;;5055399;28;19931;-75
2022/10/31 04:43:46;;;;;;;;;;;8.40;99.90;;;;;;5054437;28;20011;-76
2022/10/31 04:46:18;;;;;;;;;;;8.40;99.90;;;;;;5059000;28;19931;-75
2022/10/31 04:48:50;;;;;;;;;;;8.40;99.90;;;;;;5043698;28;19964;-77
2022/10/31 04:51:23;;;;;;;;;;;8.40;99.90;;;;;;5045638;28;22487;-75
2022/10/31 04:53:50;;;;;;;;;;;8.40;99.90;;;;;;5066133;28;19936;-75
2022/10/31 04:56:47;;;;;;;;;;;8.30;99.90;;;;;;5059603;28;19935;-77
2022/10/31 04:59:21;;;;;;;;;;;8.30;99.90;;;;;;5060738;28;19935;-76
2022/10/31 05:01:53;;;;;;;;;;;8.30;99.90;;;;;;5051169;28;20359;-77
2022/10/31 05:04:39;;;;;;;;;;;8.30;99.90;;;;;;5066578;28;19924;-75
2022/10/31 05:07:11;;;;;;;;;;;8.20;99.90;;;;;;5065045;28;19924;-74
2022/10/31 05:09:42;;;;;;;;;;;8.20;99.90;;;;;;5050814;28;19964;-74
2022/10/31 05:12:14;;;;;;;;;;;8.20;99.90;;;;;;5062423;28;19932;-74
2022/10/31 05:15:16;;;;;;;;;;;8.20;99.90;;;;;;5057845;28;20440;-75
2022/10/31 05:18:11;;;;;;;;;;;8.10;99.90;;;;;;5063927;28;19932;-77
2022/10/31 05:21:08;;;;;;;;;;;8.10;99.90;;;;;;5060081;28;19925;-73
2022/10/31 05:23:53;;;;;;;;;;;8.10;99.90;;;;;;5060676;28;19964;-75
2022/10/31 05:26:24;;;;;;;;;;;8.00;99.90;;;;;;5046502;28;19929;-74
2022/10/31 05:28:53;;;;;;;;;;;8.00;99.90;;;;;;5044587;28;19970;-76
2022/10/31 05:31:24;;;;;;;;;;;8.00;99.90;;;;;;5046128;28;20044;-75
2022/10/31 05:33:52;;;;;;;;;;;8.00;99.90;;;;;;5062691;28;19924;-73
2022/10/31 05:36:43;;;;;;;;;;;7.90;99.90;;;;;;5061058;28;20055;-76
2022/10/31 05:39:16;;;;;;;;;;;7.90;99.90;;;;;;5043845;28;19948;-76
2022/10/31 05:41:52;;;;;;;;;;;8.00;99.90;;;;;;5043891;28;19944;-76
2022/10/31 05:44:26;;;;;;;;;;;8.00;99.90;;;;;;5063647;28;19928;-76
2022/10/31 05:47:22;;;;;;;;;;;8.00;99.90;;;;;;5051084;28;19976;-75
2022/10/31 05:50:12;;;;;;;;;;;8.00;99.90;;;;;;5075649;28;20052;-73
2022/10/31 05:53:03;;;;;;;;;;;8.00;99.90;;;;;;5061934;28;20624;-75
2022/10/31 05:55:34;;;;;;;;;;;8.00;99.90;;;;;;5060792;28;19925;-75
2022/10/31 05:58:06;;;;;;;;;;;8.00;99.90;;;;;;5055256;28;19925;-74
2022/10/31 06:00:41;;;;;;;;;;;8.00;99.90;;;;;;5064012;28;20009;-76
2022/10/31 06:03:14;;;;;;;;;;;8.00;99.90;;;;;;5048248;28;19932;-74
2022/10/31 06:05:48;;;;;;;;;;;8.00;99.90;;;;;;5039693;28;19929;-74
2022/10/31 06:08:21;;;;;;;;;;;8.00;99.90;;;;;;5055367;28;19929;-73
2022/10/31 06:10:49;;;;;;;;;;;8.00;99.90;;;;;;5062117;28;19928;-76
2022/10/31 06:13:40;;;;;;;;;;;7.90;99.90;;;;;;5055500;28;19929;-75
2022/10/31 06:16:18;;;;;;;;;;;7.90;99.90;;;;;;5059046;28;19932;-73
2022/10/31 06:18:50;;;;;;;;;;;7.80;99.90;;;;;;5058768;28;19929;-76
2022/10/31 06:21:22;;;;;;;;;;;7.80;99.90;;;;;;5058409;28;19932;-74
2022/10/31 06:23:50;;;;;;;;;;;7.80;99.90;;;;;;5059413;28;19935;-76
2022/10/31 06:26:42;;;;;;;;;;;7.80;99.90;;;;;;5059719;28;19925;-76
2022/10/31 06:29:14;;;;;;;;;;;7.90;99.90;;;;;;5061109;28;20022;-79
2022/10/31 06:32:09;;;;;;;;;;;7.90;99.90;;;;;;5055656;28;19939;-79
2022/10/31 06:34:43;;;;;;;;;;;7.90;99.90;;;;;;5059241;28;19940;-76
2022/10/31 06:37:10;;;;;;;;;;;7.90;99.90;;;;;;5063699;28;20357;-76
2022/10/31 06:39:45;;;;;;;;;;;7.90;99.90;;;;;;5067926;28;19958;-76
2022/10/31 06:42:17;;;;;;;;;;;7.90;99.90;;;;;;5062836;28;20365;-75
2022/10/31 06:44:49;;;;;;;;;;;7.90;99.90;;;;;;5069658;28;19978;-76
2022/10/31 06:47:54;;;;;;;;;;;7.90;99.90;;;;;;5041161;28;19925;-77
2022/10/31 06:50:29;;;;;;;;;;;7.90;99.90;;;;;;5045747;28;19924;-77
2022/10/31 06:52:57;;;;;;;;;;;7.90;99.90;;;;;;5060839;28;19986;-75
2022/10/31 06:55:25;;;;;;;;;;;7.90;99.90;;;;;;5042242;28;19925;-76
2022/10/31 06:57:57;;;;;;;;;;;7.90;99.90;;;;;;5065215;28;19925;-77
2022/10/31 07:00:30;;;;;;;;;;;8.00;99.90;;;;;;5062922;28;19978;-77
2022/10/31 07:03:06;;;;;;;;;;;8.00;99.90;;;;;;5069083;28;19989;-76
2022/10/31 07:05:38;;;;;;;;;;;8.00;99.90;;;;;;5053991;28;19931;-77
2022/10/31 07:08:06;;;;;;;;;;;8.00;99.90;;;;;;5066064;28;19931;-76
2022/10/31 07:10:39;;;;;;;;;;;8.10;99.90;;;;;;5063471;28;19933;-76
2022/10/31 07:13:13;;;;;;;;;;;8.10;99.90;;;;;;5068910;28;19935;-76
2022/10/31 07:15:53;;;;;;;;;;;8.10;99.90;;;;;;5061421;28;20591;-75
2022/10/31 07:18:25;;;;;;;;;;;8.10;99.90;;;;;;5063964;28;19933;-77
2022/10/31 07:20:56;;;;;;;;;;;8.20;99.90;;;;;;5043481;28;19931;-76
2022/10/31 07:23:23;;;;;;;;;;;8.20;99.90;;;;;;5048265;28;20432;-78
2022/10/31 07:26:14;;;;;;;;;;;8.20;99.90;;;;;;5068859;28;19970;-76
2022/10/31 07:28:48;;;;;;;;;;;8.10;99.90;;;;;;5063448;28;19932;-75
2022/10/31 07:31:22;;;;;;;;;;;8.10;99.90;;;;;;5066458;28;20481;-76
2022/10/31 07:33:50;;;;;;;;;;;8.10;99.90;;;;;;5083976;28;19990;-77
2022/10/31 07:36:28;;;;;;;;;;;8.20;99.90;;;;;;5063713;28;20026;-76
2022/10/31 07:39:02;;;;;;;;;;;8.20;99.90;;;;;;5065886;28;20019;-79
2022/10/31 07:41:32;;;;;;;;;;;8.30;99.90;;;;;;5046189;28;20361;-76
2022/10/31 07:44:03;;;;;;;;;;;8.30;99.90;;;;;;5065115;28;20498;-77
2022/10/31 07:46:45;;;;;;;;;;;8.30;99.90;;;;;;5063122;28;20381;-76
2022/10/31 07:49:36;;;;;;;;;;;8.40;99.90;;;;;;5059004;28;20428;-75
2022/10/31 07:52:21;;;;;;;;;;;8.50;99.90;;;;;;5058024;28;19943;-74
2022/10/31 07:55:06;;;;;;;;;;;8.60;99.90;;;;;;5060509;28;19935;-77
2022/10/31 07:57:38;;;;;;;;;;;8.70;99.90;;;;;;5080157;28;19932;-77
2022/10/31 08:00:10;;;;;;;;;;;8.80;99.90;;;;;;5042272;28;19978;-74
2022/10/31 08:02:42;;;;;;;;;;;8.80;99.90;;;;;;5058412;28;19925;-76
2022/10/31 08:05:28;;;;;;;;;;;8.90;99.90;;;;;;5059175;28;20089;-77
2022/10/31 08:08:17;;;;;;;;;;;9.00;99.90;;;;;;5058135;28;19933;-75
2022/10/31 08:10:49;;;;;;;;;;;9.10;99.90;;;;;;5062958;28;19924;-79
2022/10/31 08:13:16;;;;;;;;;;;9.20;99.90;;;;;;5066920;28;19935;-76
2022/10/31 08:15:51;;;;;;;;;;;9.30;99.90;;;;;;5045235;28;20026;-81
2022/10/31 08:18:23;;;;;;;;;;;9.30;99.90;;;;;;5051189;28;19925;-75
2022/10/31 08:20:57;;;;;;;;;;;9.40;99.90;;;;;;5069757;28;19958;-76
2022/10/31 08:23:23;;;;;;;;;;;9.50;99.90;;;;;;5065423;28;19933;-76
2022/10/31 08:25:57;;;;;;;;;;;9.60;99.90;;;;;;5060466;28;19935;-75
2022/10/31 08:28:23;;;;;;;;;;;9.70;99.90;;;;;;5061979;28;19924;-78
2022/10/31 08:30:52;;;;;;;;;;;9.80;99.90;;;;;;5076539;28;19928;-78
2022/10/31 08:33:46;;;;;;;;;;;9.90;99.90;;;;;;5021696;28;20306;-78
2022/10/31 08:36:18;;;;;;;;;;;9.90;99.90;;;;;;5062744;28;19978;-80
2022/10/31 08:38:59;;;;;;;;;;;10.00;99.90;;;;;;5043127;28;19971;-77
2022/10/31 08:41:31;;;;;;;;;;;10.10;99.90;;;;;;5066934;28;20395;-75
2022/10/31 08:43:59;;;;;;;;;;;10.20;99.90;;;;;;5064005;28;19979;-75
2022/10/31 08:46:31;;;;;;;;;;;10.20;99.90;;;;;;5068812;28;19928;-75
2022/10/31 08:48:58;;;;;;;;;;;10.30;99.90;;;;;;5046055;28;19925;-75
2022/10/31 08:51:29;;;;;;;;;;;10.40;99.90;;;;;;5066666;28;19929;-75
2022/10/31 08:54:01;;;;;;;;;;;10.60;99.90;;;;;;5064324;28;19928;-78
2022/10/31 08:56:33;;;;;;;;;;;10.80;99.90;;;;;;5066108;28;20408;-75
2022/10/31 08:59:17;;;;;;;;;;;11.10;99.90;;;;;;5059668;28;19928;-76
2022/10/31 09:02:02;;;;;;;;;;;11.40;99.90;;;;;;5052960;28;19946;-76
2022/10/31 09:04:35;;;;;;;;;;;11.50;99.90;;;;;;5063342;28;19968;-76
2022/10/31 09:07:01;;;;;;;;;;;11.70;99.90;;;;;;5056821;28;19967;-75
2022/10/31 09:09:28;;;;;;;;;;;11.80;99.90;;;;;;5058903;28;19925;-77
2022/10/31 09:11:55;;;;;;;;;;;12.00;99.90;;;;;;5042995;28;20527;-75
2022/10/31 09:14:22;;;;;;;;;;;12.10;99.90;;;;;;5057560;28;19982;-75
2022/10/31 09:17:07;;;;;;;;;;;12.30;99.90;;;;;;5058019;28;20021;-79
2022/10/31 09:19:51;;;;;;;;;;;12.30;99.90;;;;;;5061438;28;19929;-75
2022/10/31 09:22:26;;;;;;;;;;;12.40;99.90;;;;;;5062982;28;19936;-75
2022/10/31 09:24:58;;;;;;;;;;;12.40;99.90;;;;;;5062081;28;19931;-76
2022/10/31 09:27:25;;;;;;;;;;;12.40;99.90;;;;;;5062885;28;20034;-73
2022/10/31 09:29:57;;;;;;;;;;;12.50;99.90;;;;;;5078181;28;19925;-75
2022/10/31 09:32:29;;;;;;;;;;;12.50;99.90;;;;;;5058887;28;20387;-76
2022/10/31 09:35:02;;;;;;;;;;;12.60;99.90;;;;;;5049439;28;19936;-76
2022/10/31 09:37:28;;;;;;;;;;;12.60;99.90;;;;;;5044829;28;19978;-76
2022/10/31 09:40:00;;;;;;;;;;;12.60;99.90;;;;;;5054885;28;19928;-76
2022/10/31 09:42:47;;;;;;;;;;;12.70;99.90;;;;;;5056834;28;20276;-75
2022/10/31 09:45:32;;;;;;;;;;;12.70;99.90;;;;;;5061077;28;19928;-74
2022/10/31 09:48:17;;;;;;;;;;;12.80;99.90;;;;;;5057661;28;20019;-76
2022/10/31 09:51:17;;;;;;;;;;;12.80;99.90;;;;;;5061247;28;19924;-75
2022/10/31 09:54:02;;;;;;;;;;;12.90;99.90;;;;;;5058036;28;19932;-75
2022/10/31 09:56:35;;;;;;;;;;;12.90;99.90;;;;;;5040518;28;19925;-74
2022/10/31 09:59:03;;;;;;;;;;;13.00;99.90;;;;;;5057606;28;20545;-73
2022/10/31 10:01:31;;;;;;;;;;;13.00;99.90;;;;;;5059177;28;19964;-76
2022/10/31 10:04:12;;;;;;;;;;;13.10;99.90;;;;;;5059598;28;19925;-76
2022/10/31 10:07:00;;;;;;;;;;;13.10;99.90;;;;;;5045547;28;20545;-75
2022/10/31 10:09:45;;;;;;;;;;;13.20;99.90;;;;;;5057800;28;20823;-74
2022/10/31 10:12:56;;;;;;;;;;;13.20;99.90;;;;;;5034527;28;19925;-74
2022/10/31 10:15:23;;;;;;;;;;;13.30;99.90;;;;;;5060926;28;19924;-78
2022/10/31 10:18:04;;;;;;;;;;;13.40;99.90;;;;;;5056861;28;19929;-77
2022/10/31 10:20:41;;;;;;;;;;;13.40;99.90;;;;;;5044454;28;20341;-76
2022/10/31 10:23:28;;;;;;;;;;;13.50;99.90;;;;;;5060141;28;19932;-75
2022/10/31 10:26:20;;;;;;;;;;;13.60;99.90;;;;;;5060298;28;19924;-78
2022/10/31 10:29:10;;;;;;;;;;;13.70;99.90;;;;;;5038350;28;19978;-77
2022/10/31 10:31:42;;;;;;;;;;;13.80;99.90;;;;;;5034353;28;19928;-74
2022/10/31 10:34:17;;;;;;;;;;;13.90;99.90;;;;;;5058140;28;19936;-74
2022/10/31 10:36:51;;;;;;;;;;;14.00;99.90;;;;;;5062507;28;20280;-73
2022/10/31 10:39:27;;;;;;;;;;;14.10;99.90;;;;;;5056987;28;19933;-77
2022/10/31 10:47:47;;;;;;;;;;;14.50;99.90;;;;;;5057215;28;19929;-76
2022/10/31 10:50:26;;;;;;;;;;;14.60;99.90;;;;;;5056458;28;19955;-75
2022/10/31 10:52:59;;;;;;;;;;;14.70;99.90;;;;;;5056797;28;19978;-75
2022/10/31 10:55:33;;;;;;;;;;;14.70;99.90;;;;;;5046932;28;19951;-76
2022/10/31 10:58:09;;;;;;;;;;;14.80;99.90;;;;;;5060510;28;20049;-76
2022/10/31 11:00:38;;;;;;;;;;;14.80;99.90;;;;;;5046521;28;19929;-75
2022/10/31 11:03:10;;;;;;;;;;;14.80;99.90;;;;;;5056858;28;19932;-75
2022/10/31 11:05:48;;;;;;;;;;;14.90;99.90;;;;;;5042952;28;19941;-76
2022/10/31 11:08:23;;;;;;;;;;;14.90;99.90;;;;;;5060969;28;19929;-74
2022/10/31 11:11:09;;;;;;;;;;;14.90;99.90;;;;;;5061197;28;19939;-76
2022/10/31 11:13:36;;;;;;;;;;;15.00;99.90;;;;;;5076656;28;19932;-76
2022/10/31 11:16:04;;;;;;;;;;;15.10;99.90;;;;;;5046684;28;19955;-76
2022/10/31 11:18:41;;;;;;;;;;;15.10;99.90;;;;;;5055545;28;19937;-76
2022/10/31 11:21:20;;;;;;;;;;;15.20;99.90;;;;;;5056417;28;19934;-75
2022/10/31 11:24:01;;;;;;;;;;;15.20;99.90;;;;;;5047264;28;19927;-76
2022/10/31 11:26:28;;;;;;;;;;;15.30;99.90;;;;;;5060495;28;19932;-76
2022/10/31 11:28:58;;;;;;;;;;;15.30;99.90;;;;;;5061508;28;19931;-77
2022/10/31 11:31:26;;;;;;;;;;;15.40;99.90;;;;;;5067672;28;19937;-75
2022/10/31 11:34:06;;;;;;;;;;;15.40;99.90;;;;;;5045853;28;19928;-74
2022/10/31 11:36:39;;;;;;;;;;;15.50;99.90;;;;;;5058956;28;19978;-75
2022/10/31 11:39:17;;;;;;;;;;;15.50;99.90;;;;;;5047194;28;19925;-73
2022/10/31 11:41:44;;;;;;;;;;;15.60;99.90;;;;;;5079903;28;19933;-73
2022/10/31 11:44:20;;;;;;;;;;;15.70;99.90;;;;;;5048708;28;20309;-77
2022/10/31 11:46:54;;;;;;;;;;;15.70;99.90;;;;;;5062066;28;20440;-75
2022/10/31 11:49:32;;;;;;;;;;;15.80;99.90;;;;;;5053594;28;19928;-73
2022/10/31 11:52:00;;;;;;;;;;;15.90;99.90;;;;;;5061455;28;19928;-75
2022/10/31 11:54:35;;;;;;;;;;;15.90;99.90;;;;;;5046017;28;21298;-74
2022/10/31 11:57:21;;;;;;;;;;;16.00;99.90;;;;;;5047118;28;19967;-73
2022/10/31 11:59:52;;;;;;;;;;;16.10;99.90;;;;;;5064568;28;19925;-73
2022/10/31 12:02:19;;;;;;;;;;;16.20;99.90;;;;;;5054976;28;19929;-77
2022/10/31 12:05:12;;;;;;;;;;;16.30;99.90;;;;;;5061656;28;20433;-73
2022/10/31 12:07:44;;;;;;;;;;;16.40;99.90;;;;;;5011070;28;19932;-76
2022/10/31 12:10:11;;;;;;;;;;;16.60;99.90;;;;;;5048047;28;19932;-77
2022/10/31 12:12:57;;;;;;;;;;;16.80;99.90;;;;;;5058535;28;19933;-72
2022/10/31 12:15:31;;;;;;;;;;;16.90;99.90;;;;;;5057340;28;20461;-75
2022/10/31 12:18:02;;;;;;;;;;;17.00;99.90;;;;;;5057177;28;19925;-73
2022/10/31 12:20:32;;;;;;;;;;;17.10;99.90;;;;;;5048958;28;20354;-73
2022/10/31 12:23:22;;;;;;;;;;;17.10;99.90;;;;;;5077539;28;19928;-73
2022/10/31 12:26:10;;;;;;;;;;;17.30;99.90;;;;;;5059266;28;19939;-76
2022/10/31 12:28:45;;;;;;;;;;;17.40;99.90;;;;;;5064895;28;20434;-75
2022/10/31 12:31:17;;;;;;;;;;;17.50;99.90;;;;;;5077189;28;20590;-76
2022/10/31 12:34:03;;;;;;;;;;;17.60;99.90;;;;;;5063080;28;19950;-73
2022/10/31 12:36:40;;;;;;;;;;;17.70;99.90;;;;;;5057604;28;20022;-75
2022/10/31 12:39:16;;;;;;;;;;;17.70;99.90;;;;;;5044778;28;20464;-74
2022/10/31 12:41:49;;;;;;;;;;;17.90;99.90;;;;;;5063463;28;19979;-77
2022/10/31 12:44:39;;;;;;;;;;;17.90;99.90;;;;;;5062783;28;19971;-78
2022/10/31 12:47:33;;;;;;;;;;;17.80;99.90;;;;;;5062659;28;19977;-76
2022/10/31 12:50:23;;;;;;;;;;;17.80;99.90;;;;;;5042522;28;19990;-75
2022/10/31 12:52:50;;;;;;;;;;;17.80;99.90;;;;;;5061080;28;19925;-77
2022/10/31 12:55:44;;;;;;;;;;;17.80;99.90;;;;;;5061245;28;19982;-75
2022/10/31 12:58:36;;;;;;;;;;;17.80;99.90;;;;;;5054826;28;19958;-77
2022/10/31 13:01:22;;;;;;;;;;;17.80;99.90;;;;;;5064100;28;20436;-77
2022/10/31 13:03:53;;;;;;;;;;;17.90;99.90;;;;;;5057631;28;19933;-75
2022/10/31 13:06:29;;;;;;;;;;;17.90;99.90;;;;;;5064843;28;20034;-77
2022/10/31 13:09:02;;;;;;;;;;;17.90;99.90;;;;;;5061924;28;19951;-76
2022/10/31 13:11:36;;;;;;;;;;;17.90;99.90;;;;;;5061441;28;19970;-76
2022/10/31 13:14:06;;;;;;;;;;;17.80;99.90;;;;;;5065642;28;19929;-76
2022/10/31 13:16:43;;;;;;;;;;;17.80;99.90;;;;;;5064226;28;20383;-77
2022/10/31 13:19:21;;;;;;;;;;;17.90;99.90;;;;;;5067672;28;19933;-76
2022/10/31 13:21:54;;;;;;;;;;;17.90;99.90;;;;;;5064565;28;19978;-75
2022/10/31 13:24:39;;;;;;;;;;;18.00;99.90;;;;;;5045821;28;20281;-77
2022/10/31 13:27:15;;;;;;;;;;;18.10;99.90;;;;;;5065825;28;19936;-76
2022/10/31 13:29:53;;;;;;;;;;;18.10;99.90;;;;;;5058329;28;20367;-76
2022/10/31 13:32:28;;;;;;;;;;;18.10;99.90;;;;;;5065666;28;19983;-76
2022/10/31 13:34:56;;;;;;;;;;;18.10;99.90;;;;;;5058785;28;19970;-77
2022/10/31 13:37:27;;;;;;;;;;;18.00;99.90;;;;;;5045289;28;20349;-76
2022/10/31 13:40:08;;;;;;;;;;;17.90;99.90;;;;;;5063929;28;19978;-78
2022/10/31 13:42:59;;;;;;;;;;;17.80;99.90;;;;;;5059978;28;20622;-77
2022/10/31 13:45:26;;;;;;;;;;;17.70;99.90;;;;;;5065416;28;19970;-77
2022/10/31 13:48:17;;;;;;;;;;;17.60;99.90;;;;;;5057207;28;19924;-76
2022/10/31 13:50:56;;;;;;;;;;;17.50;99.90;;;;;;5050142;28;19928;-75
2022/10/31 13:53:34;;;;;;;;;;;17.40;99.90;;;;;;5079166;28;20417;-77
2022/10/31 13:56:17;;;;;;;;;;;17.40;99.90;;;;;;5077531;28;19925;-76
2022/10/31 13:58:56;;;;;;;;;;;17.30;99.90;;;;;;5064559;28;20366;-77
2022/10/31 14:01:23;;;;;;;;;;;17.20;99.90;;;;;;5060800;28;19940;-77
2022/10/31 14:04:07;;;;;;;;;;;17.20;99.90;;;;;;5063784;28;19932;-76
2022/10/31 14:06:47;;;;;;;;;;;17.20;99.90;;;;;;5062304;28;19932;-78
2022/10/31 14:09:26;;;;;;;;;;;17.20;99.90;;;;;;5045881;28;19929;-76
2022/10/31 14:11:53;;;;;;;;;;;17.20;99.90;;;;;;5062390;28;19928;-78
2022/10/31 14:14:20;;;;;;;;;;;17.20;99.90;;;;;;5076729;28;20353;-76
2022/10/31 14:16:54;;;;;;;;;;;17.10;99.90;;;;;;5058400;28;19925;-74
2022/10/31 14:19:25;;;;;;;;;;;17.10;99.90;;;;;;5048616;28;20376;-75
2022/10/31 14:21:57;;;;;;;;;;;17.10;99.90;;;;;;5062227;28;19990;-74
2022/10/31 14:24:33;;;;;;;;;;;17.10;99.90;;;;;;5057452;28;19925;-76
2022/10/31 14:27:25;;;;;;;;;;;17.10;99.90;;;;;;5059369;28;19954;-76
2022/10/31 14:29:52;;;;;;;;;;;17.20;99.90;;;;;;5060786;28;19930;-73
2022/10/31 14:32:25;;;;;;;;;;;17.30;99.90;;;;;;5064540;28;20336;-74
2022/10/31 14:34:57;;;;;;;;;;;17.30;99.90;;;;;;5056332;28;19928;-72
2022/10/31 14:37:46;;;;;;;;;;;17.40;99.90;;;;;;5054688;28;19937;-72
2022/10/31 14:40:35;;;;;;;;;;;17.50;99.90;;;;;;5061094;28;19933;-74
2022/10/31 14:43:14;;;;;;;;;;;17.60;99.90;;;;;;5043077;28;20291;-73
2022/10/31 14:45:54;;;;;;;;;;;17.50;99.90;;;;;;5060223;28;19971;-73
2022/10/31 14:48:35;;;;;;;;;;;17.50;99.90;;;;;;5061172;28;19977;-75
2022/10/31 14:51:10;;;;;;;;;;;17.60;99.90;;;;;;5057843;28;20433;-73
2022/10/31 14:53:48;;;;;;;;;;;17.70;99.90;;;;;;5047297;28;20386;-74
2022/10/31 14:56:19;;;;;;;;;;;17.80;99.90;;;;;;5058942;28;20402;-73
2022/10/31 14:58:47;;;;;;;;;;;17.80;99.90;;;;;;5066053;28;19932;-76
2022/10/31 15:01:20;;;;;;;;;;;17.70;99.90;;;;;;5057889;28;20337;-73
2022/10/31 15:03:53;;;;;;;;;;;17.70;99.90;;;;;;5066495;28;20365;-72
2022/10/31 15:06:25;;;;;;;;;;;17.60;99.90;;;;;;5068508;28;19924;-75
2022/10/31 15:08:53;;;;;;;;;;;17.70;99.90;;;;;;5080637;28;20019;-74
2022/10/31 15:11:25;;;;;;;;;;;17.70;99.90;;;;;;5061053;28;19982;-71
2022/10/31 15:13:53;;;;;;;;;;;17.70;99.90;;;;;;5058584;28;19932;-73
2022/10/31 15:16:31;;;;;;;;;;;17.70;99.90;;;;;;5065663;28;19924;-74
2022/10/31 15:19:04;;;;;;;;;;;17.70;99.90;;;;;;5077113;28;19986;-74